sensor_id;sensor_type;location;lat;lon;timestamp;temperature;humidity
32366;DHT22;18837;46.832;16.838;2024-02-21T00:00:52;7.90;99.90
32366;DHT22;18837;46.832;16.838;2024-02-21T00:03:18;7.80;99.90
32366;DHT22;18837;46.832;16.838;2024-02-21T00:05:45;7.80;99.90
32366;DHT22;18837;46.832;16.838;2024-02-21T00:10:45;7.80;99.70
32366;DHT22;18837;46.832;16.838;2024-02-21T00:13:10;7.80;99.90
32366;DHT22;18837;46.832;16.838;2024-02-21T00:15:37;7.80;99.90
32366;DHT22;18837;46.832;16.838;2024-02-21T00:18:02;7.80;99.90
32366;DHT22;18837;46.832;16.838;2024-02-21T00:20:28;7.80;99.90
32366;DHT22;18837;46.832;16.838;2024-02-21T00:22:54;7.80;99.90
32366;DHT22;18837;46.832;16.838;2024-02-21T00:25:20;7.80;99.90
32366;DHT22;18837;46.832;16.838;2024-02-21T00:27:46;7.80;99.90
32366;DHT22;18837;46.832;16.838;2024-02-21T00:30:12;7.80;99.90
32366;DHT22;18837;46.832;16.838;2024-02-21T00:32:37;7.80;99.90
32366;DHT22;18837;46.832;16.838;2024-02-21T00:35:04;7.80;99.90
32366;DHT22;18837;46.832;16.838;2024-02-21T00:37:30;7.70;99.90
32366;DHT22;18837;46.832;16.838;2024-02-21T00:39:56;7.70;99.90
32366;DHT22;18837;46.832;16.838;2024-02-21T00:42:22;7.70;99.90
32366;DHT22;18837;46.832;16.838;2024-02-21T00:44:48;7.70;99.90
32366;DHT22;18837;46.832;16.838;2024-02-21T00:47:13;7.70;99.90
32366;DHT22;18837;46.832;16.838;2024-02-21T00:49:39;7.70;99.90
32366;DHT22;18837;46.832;16.838;2024-02-21T00:52:05;7.70;99.90
32366;DHT22;18837;46.832;16.838;2024-02-21T00:54:30;7.70;99.90
32366;DHT22;18837;46.832;16.838;2024-02-21T00:56:56;7.70;99.90
32366;DHT22;18837;46.832;16.838;2024-02-21T00:59:22;7.70;99.90
32366;DHT22;18837;46.832;16.838;2024-02-21T01:01:47;7.70;99.90
32366;DHT22;18837;46.832;16.838;2024-02-21T01:04:13;7.60;99.90
32366;DHT22;18837;46.832;16.838;2024-02-21T01:06:39;7.70;99.90
32366;DHT22;18837;46.832;16.838;2024-02-21T01:09:08;7.70;99.90
32366;DHT22;18837;46.832;16.838;2024-02-21T01:11:33;7.60;99.90
32366;DHT22;18837;46.832;16.838;2024-02-21T01:13:59;7.60;99.90
32366;DHT22;18837;46.832;16.838;2024-02-21T01:16:26;7.60;99.90
32366;DHT22;18837;46.832;16.838;2024-02-21T01:18:52;7.60;99.90
32366;DHT22;18837;46.832;16.838;2024-02-21T01:21:17;7.60;99.90
32366;DHT22;18837;46.832;16.838;2024-02-21T01:23:43;7.60;99.90
32366;DHT22;18837;46.832;16.838;2024-02-21T01:26:09;7.60;99.90
32366;DHT22;18837;46.832;16.838;2024-02-21T01:28:38;7.60;99.90
32366;DHT22;18837;46.832;16.838;2024-02-21T01:31:04;7.60;99.90
32366;DHT22;18837;46.832;16.838;2024-02-21T01:33:29;7.60;99.90
32366;DHT22;18837;46.832;16.838;2024-02-21T01:36:01;7.60;99.90
32366;DHT22;18837;46.832;16.838;2024-02-21T01:38:27;7.60;99.90
32366;DHT22;18837;46.832;16.838;2024-02-21T01:40:54;7.50;99.90
32366;DHT22;18837;46.832;16.838;2024-02-21T01:43:20;7.60;99.90
32366;DHT22;18837;46.832;16.838;2024-02-21T01:45:50;7.50;99.90
32366;DHT22;18837;46.832;16.838;2024-02-21T01:48:18;7.50;99.90
32366;DHT22;18837;46.832;16.838;2024-02-21T01:50:48;7.50;99.90
32366;DHT22;18837;46.832;16.838;2024-02-21T01:53:18;7.50;99.90
32366;DHT22;18837;46.832;16.838;2024-02-21T01:55:45;7.50;99.90
32366;DHT22;18837;46.832;16.838;2024-02-21T01:58:13;7.50;99.90
32366;DHT22;18837;46.832;16.838;2024-02-21T02:00:41;7.50;99.90
32366;DHT22;18837;46.832;16.838;2024-02-21T02:03:09;7.50;99.90
32366;DHT22;18837;46.832;16.838;2024-02-21T02:05:35;7.50;99.90
32366;DHT22;18837;46.832;16.838;2024-02-21T02:08:01;7.50;99.90
32366;DHT22;18837;46.832;16.838;2024-02-21T02:10:27;7.50;99.90
32366;DHT22;18837;46.832;16.838;2024-02-21T02:12:53;7.50;99.90
32366;DHT22;18837;46.832;16.838;2024-02-21T02:15:18;7.50;99.90
32366;DHT22;18837;46.832;16.838;2024-02-21T02:17:44;7.50;99.90
32366;DHT22;18837;46.832;16.838;2024-02-21T02:20:10;7.50;99.90
32366;DHT22;18837;46.832;16.838;2024-02-21T02:22:37;7.50;99.90
32366;DHT22;18837;46.832;16.838;2024-02-21T02:25:04;7.50;99.90
32366;DHT22;18837;46.832;16.838;2024-02-21T02:27:30;7.40;99.90
32366;DHT22;18837;46.832;16.838;2024-02-21T02:29:56;7.40;99.90
32366;DHT22;18837;46.832;16.838;2024-02-21T02:32:22;7.40;99.90
32366;DHT22;18837;46.832;16.838;2024-02-21T02:34:47;7.40;99.90
32366;DHT22;18837;46.832;16.838;2024-02-21T02:37:13;7.40;99.90
32366;DHT22;18837;46.832;16.838;2024-02-21T02:39:39;7.40;99.90
32366;DHT22;18837;46.832;16.838;2024-02-21T02:42:04;7.40;99.90
32366;DHT22;18837;46.832;16.838;2024-02-21T02:44:30;7.40;99.90
32366;DHT22;18837;46.832;16.838;2024-02-21T02:46:56;7.40;99.90
32366;DHT22;18837;46.832;16.838;2024-02-21T02:49:22;7.40;99.90
32366;DHT22;18837;46.832;16.838;2024-02-21T02:51:47;7.40;99.90
32366;DHT22;18837;46.832;16.838;2024-02-21T02:54:13;7.40;99.90
32366;DHT22;18837;46.832;16.838;2024-02-21T02:56:39;7.40;99.90
32366;DHT22;18837;46.832;16.838;2024-02-21T02:59:04;7.40;99.90
32366;DHT22;18837;46.832;16.838;2024-02-21T03:01:34;7.30;99.90
32366;DHT22;18837;46.832;16.838;2024-02-21T03:04:00;7.30;99.90
32366;DHT22;18837;46.832;16.838;2024-02-21T03:06:26;7.30;99.90
32366;DHT22;18837;46.832;16.838;2024-02-21T03:08:52;7.30;99.90
32366;DHT22;18837;46.832;16.838;2024-02-21T03:11:20;7.30;99.90
32366;DHT22;18837;46.832;16.838;2024-02-21T03:13:46;7.30;99.90
32366;DHT22;18837;46.832;16.838;2024-02-21T03:16:12;7.30;99.90
32366;DHT22;18837;46.832;16.838;2024-02-21T03:18:39;7.30;99.90
32366;DHT22;18837;46.832;16.838;2024-02-21T03:21:05;7.30;99.90
32366;DHT22;18837;46.832;16.838;2024-02-21T03:23:30;7.30;99.90
32366;DHT22;18837;46.832;16.838;2024-02-21T03:25:56;7.30;99.90
32366;DHT22;18837;46.832;16.838;2024-02-21T03:28:22;7.30;99.90
32366;DHT22;18837;46.832;16.838;2024-02-21T03:30:48;7.30;99.90
32366;DHT22;18837;46.832;16.838;2024-02-21T03:33:13;7.30;99.90
32366;DHT22;18837;46.832;16.838;2024-02-21T03:35:39;7.30;99.90
32366;DHT22;18837;46.832;16.838;2024-02-21T03:38:05;7.30;99.90
32366;DHT22;18837;46.832;16.838;2024-02-21T03:40:30;7.30;99.90
32366;DHT22;18837;46.832;16.838;2024-02-21T03:42:56;7.30;99.90
32366;DHT22;18837;46.832;16.838;2024-02-21T03:45:22;7.30;99.90
32366;DHT22;18837;46.832;16.838;2024-02-21T03:47:48;7.20;99.90
32366;DHT22;18837;46.832;16.838;2024-02-21T03:50:14;7.30;99.90
32366;DHT22;18837;46.832;16.838;2024-02-21T03:52:40;7.30;99.90
32366;DHT22;18837;46.832;16.838;2024-02-21T03:55:06;7.20;99.90
32366;DHT22;18837;46.832;16.838;2024-02-21T03:57:33;7.20;99.90
32366;DHT22;18837;46.832;16.838;2024-02-21T03:59:58;7.30;99.90
32366;DHT22;18837;46.832;16.838;2024-02-21T04:02:24;7.30;99.90
32366;DHT22;18837;46.832;16.838;2024-02-21T04:04:50;7.10;99.90
32366;DHT22;18837;46.832;16.838;2024-02-21T04:07:15;7.30;99.90
32366;DHT22;18837;46.832;16.838;2024-02-21T04:09:47;7.20;99.90
32366;DHT22;18837;46.832;16.838;2024-02-21T04:12:13;7.30;99.90
32366;DHT22;18837;46.832;16.838;2024-02-21T04:14:39;7.20;99.90
32366;DHT22;18837;46.832;16.838;2024-02-21T04:17:05;7.20;99.90
32366;DHT22;18837;46.832;16.838;2024-02-21T04:19:31;7.20;99.90
32366;DHT22;18837;46.832;16.838;2024-02-21T04:21:57;7.20;99.90
32366;DHT22;18837;46.832;16.838;2024-02-21T04:24:23;7.20;99.90
32366;DHT22;18837;46.832;16.838;2024-02-21T04:26:49;7.20;99.90
32366;DHT22;18837;46.832;16.838;2024-02-21T04:29:14;7.20;99.90
32366;DHT22;18837;46.832;16.838;2024-02-21T04:31:40;7.20;99.90
32366;DHT22;18837;46.832;16.838;2024-02-21T04:34:06;7.20;99.90
32366;DHT22;18837;46.832;16.838;2024-02-21T04:36:32;7.20;99.90
32366;DHT22;18837;46.832;16.838;2024-02-21T04:38:58;7.20;99.90
32366;DHT22;18837;46.832;16.838;2024-02-21T04:41:24;7.20;99.90
32366;DHT22;18837;46.832;16.838;2024-02-21T04:43:50;7.20;99.90
32366;DHT22;18837;46.832;16.838;2024-02-21T04:46:16;7.20;99.90
32366;DHT22;18837;46.832;16.838;2024-02-21T04:48:41;7.20;99.90
32366;DHT22;18837;46.832;16.838;2024-02-21T04:51:07;7.20;99.90
32366;DHT22;18837;46.832;16.838;2024-02-21T04:53:33;7.20;99.90
32366;DHT22;18837;46.832;16.838;2024-02-21T04:55:58;7.20;99.90
32366;DHT22;18837;46.832;16.838;2024-02-21T04:58:24;7.20;99.90
32366;DHT22;18837;46.832;16.838;2024-02-21T05:00:50;7.20;99.90
32366;DHT22;18837;46.832;16.838;2024-02-21T05:03:17;7.20;99.90
32366;DHT22;18837;46.832;16.838;2024-02-21T05:05:42;7.20;99.90
32366;DHT22;18837;46.832;16.838;2024-02-21T05:08:09;7.20;99.90
32366;DHT22;18837;46.832;16.838;2024-02-21T05:10:36;7.20;99.90
32366;DHT22;18837;46.832;16.838;2024-02-21T05:13:02;7.20;99.90
32366;DHT22;18837;46.832;16.838;2024-02-21T05:15:28;7.20;99.90
32366;DHT22;18837;46.832;16.838;2024-02-21T05:17:54;7.20;99.90
32366;DHT22;18837;46.832;16.838;2024-02-21T05:20:19;7.20;99.90
32366;DHT22;18837;46.832;16.838;2024-02-21T05:22:45;7.20;99.90
32366;DHT22;18837;46.832;16.838;2024-02-21T05:25:11;7.20;99.90
32366;DHT22;18837;46.832;16.838;2024-02-21T05:27:37;7.20;99.90
32366;DHT22;18837;46.832;16.838;2024-02-21T05:30:04;7.10;99.90
32366;DHT22;18837;46.832;16.838;2024-02-21T05:32:32;7.20;99.90
32366;DHT22;18837;46.832;16.838;2024-02-21T05:34:58;7.20;99.90
32366;DHT22;18837;46.832;16.838;2024-02-21T05:37:24;7.20;99.90
32366;DHT22;18837;46.832;16.838;2024-02-21T05:39:49;7.20;99.90
32366;DHT22;18837;46.832;16.838;2024-02-21T05:42:15;7.20;99.90
32366;DHT22;18837;46.832;16.838;2024-02-21T05:44:41;7.20;99.90
32366;DHT22;18837;46.832;16.838;2024-02-21T05:47:07;7.20;99.90
32366;DHT22;18837;46.832;16.838;2024-02-21T05:49:37;7.10;99.90
32366;DHT22;18837;46.832;16.838;2024-02-21T05:52:03;7.10;99.90
32366;DHT22;18837;46.832;16.838;2024-02-21T05:54:30;7.10;99.90
32366;DHT22;18837;46.832;16.838;2024-02-21T05:56:56;7.10;99.90
32366;DHT22;18837;46.832;16.838;2024-02-21T05:59:22;7.10;99.90
32366;DHT22;18837;46.832;16.838;2024-02-21T06:01:58;7.10;99.90
32366;DHT22;18837;46.832;16.838;2024-02-21T06:04:23;7.10;99.90
32366;DHT22;18837;46.832;16.838;2024-02-21T06:06:53;7.10;99.80
32366;DHT22;18837;46.832;16.838;2024-02-21T06:09:19;7.10;99.90
32366;DHT22;18837;46.832;16.838;2024-02-21T06:11:47;7.20;99.90
32366;DHT22;18837;46.832;16.838;2024-02-21T06:14:20;7.10;99.90
32366;DHT22;18837;46.832;16.838;2024-02-21T06:16:49;7.10;99.40
32366;DHT22;18837;46.832;16.838;2024-02-21T06:19:15;7.10;99.90
32366;DHT22;18837;46.832;16.838;2024-02-21T06:21:40;7.10;99.90
32366;DHT22;18837;46.832;16.838;2024-02-21T06:24:06;7.10;99.90
32366;DHT22;18837;46.832;16.838;2024-02-21T06:26:32;7.10;99.90
32366;DHT22;18837;46.832;16.838;2024-02-21T06:28:58;7.10;99.90
32366;DHT22;18837;46.832;16.838;2024-02-21T06:31:25;7.10;99.90
32366;DHT22;18837;46.832;16.838;2024-02-21T06:33:51;7.10;99.90
32366;DHT22;18837;46.832;16.838;2024-02-21T06:36:17;7.10;99.90
32366;DHT22;18837;46.832;16.838;2024-02-21T06:38:43;7.10;99.90
32366;DHT22;18837;46.832;16.838;2024-02-21T06:41:18;7.10;99.90
32366;DHT22;18837;46.832;16.838;2024-02-21T06:43:45;7.10;99.90
32366;DHT22;18837;46.832;16.838;2024-02-21T06:46:11;7.10;99.90
32366;DHT22;18837;46.832;16.838;2024-02-21T06:48:37;7.10;99.90
32366;DHT22;18837;46.832;16.838;2024-02-21T06:51:03;7.10;99.90
32366;DHT22;18837;46.832;16.838;2024-02-21T06:53:29;7.10;99.90
32366;DHT22;18837;46.832;16.838;2024-02-21T06:55:55;7.10;99.90
32366;DHT22;18837;46.832;16.838;2024-02-21T06:58:21;7.10;99.90
32366;DHT22;18837;46.832;16.838;2024-02-21T07:00:47;7.10;99.90
32366;DHT22;18837;46.832;16.838;2024-02-21T07:03:13;7.10;99.90
32366;DHT22;18837;46.832;16.838;2024-02-21T07:05:38;7.10;99.90
32366;DHT22;18837;46.832;16.838;2024-02-21T07:08:04;7.10;99.90
32366;DHT22;18837;46.832;16.838;2024-02-21T07:10:30;7.20;99.90
32366;DHT22;18837;46.832;16.838;2024-02-21T07:12:56;7.20;99.90
32366;DHT22;18837;46.832;16.838;2024-02-21T07:15:22;7.20;99.90
32366;DHT22;18837;46.832;16.838;2024-02-21T07:17:48;7.10;99.90
32366;DHT22;18837;46.832;16.838;2024-02-21T07:20:13;7.10;99.90
32366;DHT22;18837;46.832;16.838;2024-02-21T07:22:39;7.20;99.90
32366;DHT22;18837;46.832;16.838;2024-02-21T07:25:05;7.20;99.90
32366;DHT22;18837;46.832;16.838;2024-02-21T07:27:31;7.20;99.90
32366;DHT22;18837;46.832;16.838;2024-02-21T07:29:58;7.20;99.90
32366;DHT22;18837;46.832;16.838;2024-02-21T07:32:24;7.20;99.90
32366;DHT22;18837;46.832;16.838;2024-02-21T07:34:50;7.10;99.90
32366;DHT22;18837;46.832;16.838;2024-02-21T07:37:15;7.20;99.90
32366;DHT22;18837;46.832;16.838;2024-02-21T07:39:41;7.20;99.90
32366;DHT22;18837;46.832;16.838;2024-02-21T07:42:07;7.20;99.90
32366;DHT22;18837;46.832;16.838;2024-02-21T07:44:33;7.20;99.90
32366;DHT22;18837;46.832;16.838;2024-02-21T07:47:00;7.20;99.90
32366;DHT22;18837;46.832;16.838;2024-02-21T07:49:25;7.20;99.90
32366;DHT22;18837;46.832;16.838;2024-02-21T07:51:51;7.20;99.90
32366;DHT22;18837;46.832;16.838;2024-02-21T07:54:18;7.20;99.90
32366;DHT22;18837;46.832;16.838;2024-02-21T07:56:44;7.20;99.90
32366;DHT22;18837;46.832;16.838;2024-02-21T07:59:10;7.20;99.90
32366;DHT22;18837;46.832;16.838;2024-02-21T08:01:36;7.20;99.90
32366;DHT22;18837;46.832;16.838;2024-02-21T08:04:02;7.20;99.90
32366;DHT22;18837;46.832;16.838;2024-02-21T08:06:30;7.30;99.90
32366;DHT22;18837;46.832;16.838;2024-02-21T08:08:55;7.30;99.90
32366;DHT22;18837;46.832;16.838;2024-02-21T08:11:22;7.30;99.90
32366;DHT22;18837;46.832;16.838;2024-02-21T08:13:48;7.30;99.90
32366;DHT22;18837;46.832;16.838;2024-02-21T08:16:14;7.30;99.90
32366;DHT22;18837;46.832;16.838;2024-02-21T08:18:40;7.30;99.90
32366;DHT22;18837;46.832;16.838;2024-02-21T08:21:08;7.30;99.90
32366;DHT22;18837;46.832;16.838;2024-02-21T08:23:34;7.30;99.90
32366;DHT22;18837;46.832;16.838;2024-02-21T08:26:02;7.30;99.90
32366;DHT22;18837;46.832;16.838;2024-02-21T08:28:28;7.30;99.90
32366;DHT22;18837;46.832;16.838;2024-02-21T08:30:54;7.30;99.90
32366;DHT22;18837;46.832;16.838;2024-02-21T08:33:20;7.30;99.90
32366;DHT22;18837;46.832;16.838;2024-02-21T08:35:50;7.30;99.90
32366;DHT22;18837;46.832;16.838;2024-02-21T08:38:16;7.40;99.90
32366;DHT22;18837;46.832;16.838;2024-02-21T08:40:41;7.40;99.90
32366;DHT22;18837;46.832;16.838;2024-02-21T08:43:08;7.40;99.90
32366;DHT22;18837;46.832;16.838;2024-02-21T08:45:34;7.40;99.90
32366;DHT22;18837;46.832;16.838;2024-02-21T08:48:00;7.40;99.90
32366;DHT22;18837;46.832;16.838;2024-02-21T08:50:25;7.40;99.90
32366;DHT22;18837;46.832;16.838;2024-02-21T08:52:51;7.40;99.90
32366;DHT22;18837;46.832;16.838;2024-02-21T08:55:17;7.40;99.90
32366;DHT22;18837;46.832;16.838;2024-02-21T08:57:42;7.40;99.90
32366;DHT22;18837;46.832;16.838;2024-02-21T09:00:08;7.40;99.90
32366;DHT22;18837;46.832;16.838;2024-02-21T09:02:41;7.50;99.90
32366;DHT22;18837;46.832;16.838;2024-02-21T09:05:10;7.50;99.90
32366;DHT22;18837;46.832;16.838;2024-02-21T09:07:36;7.50;99.90
32366;DHT22;18837;46.832;16.838;2024-02-21T09:10:02;7.50;99.90
32366;DHT22;18837;46.832;16.838;2024-02-21T09:12:28;7.50;99.90
32366;DHT22;18837;46.832;16.838;2024-02-21T09:14:55;7.60;99.90
32366;DHT22;18837;46.832;16.838;2024-02-21T09:17:20;7.60;99.90
32366;DHT22;18837;46.832;16.838;2024-02-21T09:19:47;7.60;99.90
32366;DHT22;18837;46.832;16.838;2024-02-21T09:22:16;7.70;99.90
32366;DHT22;18837;46.832;16.838;2024-02-21T09:24:41;7.70;99.90
32366;DHT22;18837;46.832;16.838;2024-02-21T09:27:07;7.70;99.90
32366;DHT22;18837;46.832;16.838;2024-02-21T09:29:33;7.80;99.90
32366;DHT22;18837;46.832;16.838;2024-02-21T09:31:59;7.80;99.90
32366;DHT22;18837;46.832;16.838;2024-02-21T09:34:25;7.90;99.90
32366;DHT22;18837;46.832;16.838;2024-02-21T09:36:51;7.90;99.90
32366;DHT22;18837;46.832;16.838;2024-02-21T09:39:17;7.90;99.90
32366;DHT22;18837;46.832;16.838;2024-02-21T09:42:05;8.00;99.90
32366;DHT22;18837;46.832;16.838;2024-02-21T09:44:39;8.00;99.90
32366;DHT22;18837;46.832;16.838;2024-02-21T09:47:11;8.00;99.90
32366;DHT22;18837;46.832;16.838;2024-02-21T09:49:40;8.10;99.90
32366;DHT22;18837;46.832;16.838;2024-02-21T09:52:07;8.10;99.90
32366;DHT22;18837;46.832;16.838;2024-02-21T09:54:33;8.20;99.90
32366;DHT22;18837;46.832;16.838;2024-02-21T09:57:00;8.20;99.90
32366;DHT22;18837;46.832;16.838;2024-02-21T09:59:28;8.20;99.90
32366;DHT22;18837;46.832;16.838;2024-02-21T10:01:54;8.30;99.90
32366;DHT22;18837;46.832;16.838;2024-02-21T10:04:21;8.30;99.90
32366;DHT22;18837;46.832;16.838;2024-02-21T10:06:47;8.30;99.90
32366;DHT22;18837;46.832;16.838;2024-02-21T10:09:29;8.40;99.90
32366;DHT22;18837;46.832;16.838;2024-02-21T10:12:08;8.40;99.90
32366;DHT22;18837;46.832;16.838;2024-02-21T10:14:35;8.40;99.90
32366;DHT22;18837;46.832;16.838;2024-02-21T10:17:01;8.40;99.90
32366;DHT22;18837;46.832;16.838;2024-02-21T10:19:28;8.50;99.90
32366;DHT22;18837;46.832;16.838;2024-02-21T10:22:08;8.50;99.90
32366;DHT22;18837;46.832;16.838;2024-02-21T10:24:35;8.50;99.90
32366;DHT22;18837;46.832;16.838;2024-02-21T10:27:07;8.50;99.90
32366;DHT22;18837;46.832;16.838;2024-02-21T10:29:39;8.60;99.60
32366;DHT22;18837;46.832;16.838;2024-02-21T10:34:34;8.60;99.90
32366;DHT22;18837;46.832;16.838;2024-02-21T10:37:02;8.60;99.90
32366;DHT22;18837;46.832;16.838;2024-02-21T10:39:32;8.60;99.90
32366;DHT22;18837;46.832;16.838;2024-02-21T10:42:02;8.70;99.90
32366;DHT22;18837;46.832;16.838;2024-02-21T10:44:33;8.80;99.90
32366;DHT22;18837;46.832;16.838;2024-02-21T10:46:59;8.80;99.90
32366;DHT22;18837;46.832;16.838;2024-02-21T10:49:26;8.80;99.90
32366;DHT22;18837;46.832;16.838;2024-02-21T10:52:09;8.80;99.90
32366;DHT22;18837;46.832;16.838;2024-02-21T10:54:45;8.90;99.90
32366;DHT22;18837;46.832;16.838;2024-02-21T10:57:13;8.90;98.30
32366;DHT22;18837;46.832;16.838;2024-02-21T10:59:44;8.90;98.20
32366;DHT22;18837;46.832;16.838;2024-02-21T11:02:10;8.90;98.90
32366;DHT22;18837;46.832;16.838;2024-02-21T11:04:37;8.90;98.70
32366;DHT22;18837;46.832;16.838;2024-02-21T11:07:05;8.90;98.50
32366;DHT22;18837;46.832;16.838;2024-02-21T11:09:31;9.00;98.50
32366;DHT22;18837;46.832;16.838;2024-02-21T11:12:05;9.00;98.40
32366;DHT22;18837;46.832;16.838;2024-02-21T11:14:31;9.00;98.20
32366;DHT22;18837;46.832;16.838;2024-02-21T11:17:15;9.00;98.20
32366;DHT22;18837;46.832;16.838;2024-02-21T11:19:41;9.10;99.60
32366;DHT22;18837;46.832;16.838;2024-02-21T11:22:15;9.10;98.70
32366;DHT22;18837;46.832;16.838;2024-02-21T11:24:44;9.10;98.20
32366;DHT22;18837;46.832;16.838;2024-02-21T11:27:20;9.10;97.90
32366;DHT22;18837;46.832;16.838;2024-02-21T11:29:48;9.10;96.50
32366;DHT22;18837;46.832;16.838;2024-02-21T11:32:17;9.10;97.50
32366;DHT22;18837;46.832;16.838;2024-02-21T11:34:59;9.20;98.10
32366;DHT22;18837;46.832;16.838;2024-02-21T11:37:30;9.20;98.00
32366;DHT22;18837;46.832;16.838;2024-02-21T11:39:59;9.20;98.30
32366;DHT22;18837;46.832;16.838;2024-02-21T11:42:28;9.20;98.60
32366;DHT22;18837;46.832;16.838;2024-02-21T11:44:55;9.20;97.90
32366;DHT22;18837;46.832;16.838;2024-02-21T11:47:24;9.30;98.00
32366;DHT22;18837;46.832;16.838;2024-02-21T11:49:51;9.30;98.00
32366;DHT22;18837;46.832;16.838;2024-02-21T11:52:23;9.30;97.90
32366;DHT22;18837;46.832;16.838;2024-02-21T11:54:51;9.30;98.20
32366;DHT22;18837;46.832;16.838;2024-02-21T11:57:18;9.30;98.70
32366;DHT22;18837;46.832;16.838;2024-02-21T11:59:45;9.30;98.90
32366;DHT22;18837;46.832;16.838;2024-02-21T12:02:12;9.40;98.90
32366;DHT22;18837;46.832;16.838;2024-02-21T12:04:39;9.40;99.10
32366;DHT22;18837;46.832;16.838;2024-02-21T12:07:05;9.50;98.80
32366;DHT22;18837;46.832;16.838;2024-02-21T12:09:33;9.50;99.10
32366;DHT22;18837;46.832;16.838;2024-02-21T12:12:01;9.50;98.90
32366;DHT22;18837;46.832;16.838;2024-02-21T12:14:29;9.50;98.20
32366;DHT22;18837;46.832;16.838;2024-02-21T12:16:56;9.50;98.20
32366;DHT22;18837;46.832;16.838;2024-02-21T12:19:22;9.60;98.00
32366;DHT22;18837;46.832;16.838;2024-02-21T12:21:51;9.60;97.90
32366;DHT22;18837;46.832;16.838;2024-02-21T12:24:24;9.60;97.90
32366;DHT22;18837;46.832;16.838;2024-02-21T12:26:51;9.60;97.90
32366;DHT22;18837;46.832;16.838;2024-02-21T12:29:18;9.60;97.70
32366;DHT22;18837;46.832;16.838;2024-02-21T12:31:44;9.60;98.40
32366;DHT22;18837;46.832;16.838;2024-02-21T12:34:10;9.60;97.90
32366;DHT22;18837;46.832;16.838;2024-02-21T12:36:41;9.70;97.60
32366;DHT22;18837;46.832;16.838;2024-02-21T12:39:09;9.70;97.70
32366;DHT22;18837;46.832;16.838;2024-02-21T12:41:35;9.70;97.70
32366;DHT22;18837;46.832;16.838;2024-02-21T12:44:04;9.70;98.00
32366;DHT22;18837;46.832;16.838;2024-02-21T12:46:33;9.70;98.30
32366;DHT22;18837;46.832;16.838;2024-02-21T12:48:58;9.80;98.00
32366;DHT22;18837;46.832;16.838;2024-02-21T12:51:24;9.80;98.60
32366;DHT22;18837;46.832;16.838;2024-02-21T12:53:50;9.80;99.30
32366;DHT22;18837;46.832;16.838;2024-02-21T12:56:16;9.90;98.70
32366;DHT22;18837;46.832;16.838;2024-02-21T12:58:42;9.90;98.20
32366;DHT22;18837;46.832;16.838;2024-02-21T13:01:08;9.90;97.40
32366;DHT22;18837;46.832;16.838;2024-02-21T13:03:35;9.90;97.60
32366;DHT22;18837;46.832;16.838;2024-02-21T13:06:00;9.90;97.90
32366;DHT22;18837;46.832;16.838;2024-02-21T13:08:26;9.90;98.50
32366;DHT22;18837;46.832;16.838;2024-02-21T13:10:52;10.00;98.80
32366;DHT22;18837;46.832;16.838;2024-02-21T13:13:18;10.00;98.00
32366;DHT22;18837;46.832;16.838;2024-02-21T13:15:44;10.00;97.40
32366;DHT22;18837;46.832;16.838;2024-02-21T13:18:10;10.00;97.00
32366;DHT22;18837;46.832;16.838;2024-02-21T13:20:36;10.00;97.30
32366;DHT22;18837;46.832;16.838;2024-02-21T13:23:03;10.00;97.60
32366;DHT22;18837;46.832;16.838;2024-02-21T13:25:29;10.00;97.20
32366;DHT22;18837;46.832;16.838;2024-02-21T13:27:55;9.90;97.00
32366;DHT22;18837;46.832;16.838;2024-02-21T13:30:22;10.00;97.10
32366;DHT22;18837;46.832;16.838;2024-02-21T13:32:48;10.00;97.10
32366;DHT22;18837;46.832;16.838;2024-02-21T13:35:14;10.00;97.50
32366;DHT22;18837;46.832;16.838;2024-02-21T13:37:41;10.00;96.70
32366;DHT22;18837;46.832;16.838;2024-02-21T13:40:08;10.00;96.60
32366;DHT22;18837;46.832;16.838;2024-02-21T13:42:37;9.90;96.80
32366;DHT22;18837;46.832;16.838;2024-02-21T13:45:04;10.00;96.80
32366;DHT22;18837;46.832;16.838;2024-02-21T13:47:33;10.00;96.40
32366;DHT22;18837;46.832;16.838;2024-02-21T13:50:00;10.00;96.80
32366;DHT22;18837;46.832;16.838;2024-02-21T13:52:25;10.00;97.50
32366;DHT22;18837;46.832;16.838;2024-02-21T13:54:54;10.00;97.90
32366;DHT22;18837;46.832;16.838;2024-02-21T13:57:20;10.10;97.70
32366;DHT22;18837;46.832;16.838;2024-02-21T13:59:45;10.10;97.60
32366;DHT22;18837;46.832;16.838;2024-02-21T14:02:11;10.10;97.10
32366;DHT22;18837;46.832;16.838;2024-02-21T14:04:38;10.10;97.10
32366;DHT22;18837;46.832;16.838;2024-02-21T14:07:05;10.10;97.60
32366;DHT22;18837;46.832;16.838;2024-02-21T14:09:30;10.10;97.80
32366;DHT22;18837;46.832;16.838;2024-02-21T14:11:57;10.10;97.80
32366;DHT22;18837;46.832;16.838;2024-02-21T14:14:23;10.20;98.00
32366;DHT22;18837;46.832;16.838;2024-02-21T14:16:49;10.20;97.80
32366;DHT22;18837;46.832;16.838;2024-02-21T14:19:15;10.20;98.10
32366;DHT22;18837;46.832;16.838;2024-02-21T14:21:40;10.20;98.10
32366;DHT22;18837;46.832;16.838;2024-02-21T14:24:07;10.20;97.70
32366;DHT22;18837;46.832;16.838;2024-02-21T14:26:33;10.20;97.20
32366;DHT22;18837;46.832;16.838;2024-02-21T14:28:59;10.20;97.20
32366;DHT22;18837;46.832;16.838;2024-02-21T14:31:25;10.20;97.70
32366;DHT22;18837;46.832;16.838;2024-02-21T14:33:52;10.20;97.90
32366;DHT22;18837;46.832;16.838;2024-02-21T14:36:17;10.20;98.00
32366;DHT22;18837;46.832;16.838;2024-02-21T14:38:44;10.20;98.20
32366;DHT22;18837;46.832;16.838;2024-02-21T14:41:10;10.20;98.30
32366;DHT22;18837;46.832;16.838;2024-02-21T14:43:39;10.20;98.00
32366;DHT22;18837;46.832;16.838;2024-02-21T14:46:05;10.20;98.20
32366;DHT22;18837;46.832;16.838;2024-02-21T14:48:34;10.20;98.30
32366;DHT22;18837;46.832;16.838;2024-02-21T14:51:02;10.20;98.40
32366;DHT22;18837;46.832;16.838;2024-02-21T14:53:28;10.20;98.20
32366;DHT22;18837;46.832;16.838;2024-02-21T14:55:54;10.30;98.10
32366;DHT22;18837;46.832;16.838;2024-02-21T14:58:21;10.20;98.10
32366;DHT22;18837;46.832;16.838;2024-02-21T15:00:47;10.20;98.00
32366;DHT22;18837;46.832;16.838;2024-02-21T15:03:13;10.20;98.10
32366;DHT22;18837;46.832;16.838;2024-02-21T15:05:45;10.20;97.90
32366;DHT22;18837;46.832;16.838;2024-02-21T15:08:11;10.20;98.00
32366;DHT22;18837;46.832;16.838;2024-02-21T15:10:37;10.20;97.80
32366;DHT22;18837;46.832;16.838;2024-02-21T15:13:03;10.20;97.80
32366;DHT22;18837;46.832;16.838;2024-02-21T15:15:30;10.20;97.90
32366;DHT22;18837;46.832;16.838;2024-02-21T15:17:56;10.10;98.10
32366;DHT22;18837;46.832;16.838;2024-02-21T15:20:22;10.10;98.00
32366;DHT22;18837;46.832;16.838;2024-02-21T15:22:48;10.10;98.10
32366;DHT22;18837;46.832;16.838;2024-02-21T15:25:14;10.10;98.00
32366;DHT22;18837;46.832;16.838;2024-02-21T15:27:44;10.10;97.50
32366;DHT22;18837;46.832;16.838;2024-02-21T15:30:11;10.10;97.70